sensor_id;sensor_type;location;lat;lon;timestamp;pressure;altitude;pressure_sealevel;temperature;humidity
76374;BME280;65197;50.164;8.012;2024-03-02T00:00:50;71884.16;;;-144.13;82.98
76374;BME280;65197;50.164;8.012;2024-03-02T00:03:16;71903.66;;;-144.13;83.01
76374;BME280;65197;50.164;8.012;2024-03-02T00:05:42;71907.56;;;-144.13;82.99
76374;BME280;65197;50.164;8.012;2024-03-02T00:08:07;71915.34;;;-144.13;83.38
76374;BME280;65197;50.164;8.012;2024-03-02T00:10:35;71934.84;;;-144.13;83.77
76374;BME280;65197;50.164;8.012;2024-03-02T00:13:02;71915.34;;;-144.13;83.73
76374;BME280;65197;50.164;8.012;2024-03-02T00:17:59;71911.44;;;-144.13;82.93
76374;BME280;65197;50.164;8.012;2024-03-02T00:20:24;71929.00;;;-144.13;83.42
76374;BME280;65197;50.164;8.012;2024-03-02T00:23:03;71876.34;;;-144.13;82.22
76374;BME280;65197;50.164;8.012;2024-03-02T00:25:43;71880.25;;;-144.13;82.60
76374;BME280;65197;50.164;8.012;2024-03-02T00:28:26;71868.56;;;-144.13;81.90
76374;BME280;65197;50.164;8.012;2024-03-02T00:33:35;71880.25;;;-144.13;81.73
76374;BME280;65197;50.164;8.012;2024-03-02T00:36:04;71888.06;;;-144.13;81.95
76374;BME280;65197;50.164;8.012;2024-03-02T00:38:30;71884.16;;;-144.13;81.84
76374;BME280;65197;50.164;8.012;2024-03-02T00:40:58;71880.25;;;-144.13;81.37
76374;BME280;65197;50.164;8.012;2024-03-02T00:46:12;71864.66;;;-144.13;80.40
76374;BME280;65197;50.164;8.012;2024-03-02T00:48:39;71849.06;;;-144.13;79.65
76374;BME280;65197;50.164;8.012;2024-03-02T00:51:04;71856.84;;;-144.13;80.16
76374;BME280;65197;50.164;8.012;2024-03-02T00:53:31;71852.97;;;-144.13;79.91
76374;BME280;65197;50.164;8.012;2024-03-02T00:55:58;71849.06;;;-144.13;79.70
76374;BME280;65197;50.164;8.012;2024-03-02T00:58:24;71835.41;;;-144.13;78.75
76374;BME280;65197;50.164;8.012;2024-03-02T01:00:49;71852.97;;;-144.13;79.31
76374;BME280;65197;50.164;8.012;2024-03-02T01:03:15;71860.75;;;-144.13;79.22
76374;BME280;65197;50.164;8.012;2024-03-02T01:05:43;71880.25;;;-144.13;80.01
76374;BME280;65197;50.164;8.012;2024-03-02T01:08:09;71886.09;;;-144.13;80.12
76374;BME280;65197;50.164;8.012;2024-03-02T01:10:35;71876.34;;;-144.13;80.90
76374;BME280;65197;50.164;8.012;2024-03-02T01:13:00;71907.56;;;-144.13;82.06
76374;BME280;65197;50.164;8.012;2024-03-02T01:15:26;71878.31;;;-144.13;81.29
76374;BME280;65197;50.164;8.012;2024-03-02T01:17:51;71880.25;;;-144.13;81.37
76374;BME280;65197;50.164;8.012;2024-03-02T01:20:16;71872.44;;;-144.13;81.23
76374;BME280;65197;50.164;8.012;2024-03-02T01:22:42;71890.00;;;-144.13;81.28
76374;BME280;65197;50.164;8.012;2024-03-02T01:25:08;71872.44;;;-144.13;80.49
76374;BME280;65197;50.164;8.012;2024-03-02T01:27:34;71858.81;;;-144.13;79.92
76374;BME280;65197;50.164;8.012;2024-03-02T01:29:59;71849.06;;;-144.13;78.76
76374;BME280;65197;50.164;8.012;2024-03-02T01:32:25;71860.75;;;-144.13;79.45
76374;BME280;65197;50.164;8.012;2024-03-02T01:34:50;71872.44;;;-144.13;79.98
76374;BME280;65197;50.164;8.012;2024-03-02T01:37:16;71866.59;;;-144.13;79.72
76374;BME280;65197;50.164;8.012;2024-03-02T01:39:41;71878.31;;;-144.13;79.83
76374;BME280;65197;50.164;8.012;2024-03-02T01:42:06;71907.56;;;-144.13;79.88
76374;BME280;65197;50.164;8.012;2024-03-02T01:44:32;71891.97;;;-144.13;79.60
76374;BME280;65197;50.164;8.012;2024-03-02T01:46:57;71891.97;;;-144.13;79.29
76374;BME280;65197;50.164;8.012;2024-03-02T01:49:23;71890.00;;;-144.13;78.92
76374;BME280;65197;50.164;8.012;2024-03-02T01:51:48;71872.44;;;-144.13;78.72
76374;BME280;65197;50.164;8.012;2024-03-02T01:54:14;71893.91;;;-144.13;79.27
76374;BME280;65197;50.164;8.012;2024-03-02T01:56:39;71880.25;;;-144.13;78.78
76374;BME280;65197;50.164;8.012;2024-03-02T01:59:05;71884.16;;;-144.13;78.58
76374;BME280;65197;50.164;8.012;2024-03-02T02:01:30;71903.66;;;-144.13;79.60
76374;BME280;65197;50.164;8.012;2024-03-02T02:03:56;71882.22;;;-144.13;79.17
76374;BME280;65197;50.164;8.012;2024-03-02T02:06:21;71880.25;;;-144.13;79.33
76374;BME280;65197;50.164;8.012;2024-03-02T02:08:47;71884.16;;;-144.13;79.34
76374;BME280;65197;50.164;8.012;2024-03-02T02:11:15;71878.31;;;-144.13;78.75
76374;BME280;65197;50.164;8.012;2024-03-02T02:13:40;71895.84;;;-144.13;79.72
76374;BME280;65197;50.164;8.012;2024-03-02T02:16:09;71913.41;;;-144.13;80.59
76374;BME280;65197;50.164;8.012;2024-03-02T02:18:35;71923.16;;;-144.13;81.34
76374;BME280;65197;50.164;8.012;2024-03-02T02:21:01;71868.56;;;-144.13;78.80
76374;BME280;65197;50.164;8.012;2024-03-02T02:23:26;71899.75;;;-144.13;79.26
76374;BME280;65197;50.164;8.012;2024-03-02T02:25:52;71911.44;;;-144.13;80.63
76374;BME280;65197;50.164;8.012;2024-03-02T02:28:17;71917.31;;;-144.13;80.05
76374;BME280;65197;50.164;8.012;2024-03-02T02:30:43;71911.44;;;-144.13;80.23
76374;BME280;65197;50.164;8.012;2024-03-02T02:33:08;71917.31;;;-144.13;81.08
76374;BME280;65197;50.164;8.012;2024-03-02T02:35:34;71880.25;;;-144.13;80.61
76374;BME280;65197;50.164;8.012;2024-03-02T02:37:59;71884.16;;;-144.13;79.68
76374;BME280;65197;50.164;8.012;2024-03-02T02:40:26;71893.91;;;-144.13;80.33
76374;BME280;65197;50.164;8.012;2024-03-02T02:42:51;71880.25;;;-144.13;79.71
76374;BME280;65197;50.164;8.012;2024-03-02T02:45:17;71897.81;;;-144.13;80.21
76374;BME280;65197;50.164;8.012;2024-03-02T02:47:43;71860.75;;;-144.13;79.22
76374;BME280;65197;50.164;8.012;2024-03-02T02:50:09;71878.31;;;-144.13;79.15
76374;BME280;65197;50.164;8.012;2024-03-02T02:52:35;71886.09;;;-144.13;79.79
76374;BME280;65197;50.164;8.012;2024-03-02T02:55:06;71876.34;;;-144.13;79.46
76374;BME280;65197;50.164;8.012;2024-03-02T02:57:32;71866.59;;;-144.13;78.67
76374;BME280;65197;50.164;8.012;2024-03-02T03:00:13;71864.66;;;-144.13;78.52
76374;BME280;65197;50.164;8.012;2024-03-02T03:02:45;71884.16;;;-144.13;79.18
76374;BME280;65197;50.164;8.012;2024-03-02T03:05:13;71897.81;;;-144.13;80.18
76374;BME280;65197;50.164;8.012;2024-03-02T03:07:40;71893.91;;;-144.13;80.16
76374;BME280;65197;50.164;8.012;2024-03-02T03:10:06;71884.16;;;-144.13;79.90
76374;BME280;65197;50.164;8.012;2024-03-02T03:12:33;71884.16;;;-144.13;79.56
76374;BME280;65197;50.164;8.012;2024-03-02T03:14:59;71899.75;;;-144.13;79.96
76374;BME280;65197;50.164;8.012;2024-03-02T03:17:25;71901.69;;;-144.13;80.66
76374;BME280;65197;50.164;8.012;2024-03-02T03:19:50;71868.56;;;-144.13;79.14
76374;BME280;65197;50.164;8.012;2024-03-02T03:22:16;71876.34;;;-144.13;78.67
76374;BME280;65197;50.164;8.012;2024-03-02T03:24:41;71919.25;;;-144.13;80.42
76374;BME280;65197;50.164;8.012;2024-03-02T03:27:07;71899.75;;;-144.13;79.56
76374;BME280;65197;50.164;8.012;2024-03-02T03:29:32;71899.75;;;-144.13;80.12
76374;BME280;65197;50.164;8.012;2024-03-02T03:31:58;71907.56;;;-144.13;79.53
76374;BME280;65197;50.164;8.012;2024-03-02T03:34:23;71878.31;;;-144.13;77.78
76374;BME280;65197;50.164;8.012;2024-03-02T03:36:48;71854.91;;;-144.13;77.60
76374;BME280;65197;50.164;8.012;2024-03-02T03:39:14;71845.16;;;-144.13;76.36
76374;BME280;65197;50.164;8.012;2024-03-02T03:41:40;71864.66;;;-144.13;76.89
76374;BME280;65197;50.164;8.012;2024-03-02T03:44:05;71841.25;;;-144.13;75.37
76374;BME280;65197;50.164;8.012;2024-03-02T03:46:31;71843.22;;;-144.13;75.58
76374;BME280;65197;50.164;8.012;2024-03-02T03:48:56;71841.25;;;-144.13;75.07
76374;BME280;65197;50.164;8.012;2024-03-02T03:51:22;71856.84;;;-144.13;75.55
76374;BME280;65197;50.164;8.012;2024-03-02T03:53:50;71833.47;;;-144.13;74.86
76374;BME280;65197;50.164;8.012;2024-03-02T03:56:15;71864.66;;;-144.13;75.65
76374;BME280;65197;50.164;8.012;2024-03-02T03:58:41;71890.00;;;-144.13;75.31
76374;BME280;65197;50.164;8.012;2024-03-02T04:01:06;71895.84;;;-144.13;76.33
76374;BME280;65197;50.164;8.012;2024-03-02T04:03:32;71876.34;;;-144.13;75.80
76374;BME280;65197;50.164;8.012;2024-03-02T04:05:57;71872.44;;;-144.13;75.24
76374;BME280;65197;50.164;8.012;2024-03-02T04:08:22;71891.97;;;-144.13;75.48
76374;BME280;65197;50.164;8.012;2024-03-02T04:10:48;71895.84;;;-144.13;75.52
76374;BME280;65197;50.164;8.012;2024-03-02T04:13:13;71897.81;;;-144.13;74.97
76374;BME280;65197;50.164;8.012;2024-03-02T04:15:39;71899.75;;;-144.13;73.93
76374;BME280;65197;50.164;8.012;2024-03-02T04:18:06;71874.41;;;-144.13;73.05
76374;BME280;65197;50.164;8.012;2024-03-02T04:20:31;71903.66;;;-144.13;73.56
76374;BME280;65197;50.164;8.012;2024-03-02T04:22:56;71876.34;;;-144.13;72.84
76374;BME280;65197;50.164;8.012;2024-03-02T04:25:22;71852.97;;;-144.13;71.67
76374;BME280;65197;50.164;8.012;2024-03-02T04:27:47;71864.66;;;-144.13;72.80
76374;BME280;65197;50.164;8.012;2024-03-02T04:30:12;71864.66;;;-144.13;71.69
76374;BME280;65197;50.164;8.012;2024-03-02T04:32:38;71878.31;;;-144.13;72.44
76374;BME280;65197;50.164;8.012;2024-03-02T04:35:04;71884.16;;;-144.13;72.23
76374;BME280;65197;50.164;8.012;2024-03-02T04:37:33;71901.69;;;-144.13;73.51
76374;BME280;65197;50.164;8.012;2024-03-02T04:39:58;71927.06;;;-144.13;74.48
76374;BME280;65197;50.164;8.012;2024-03-02T04:42:24;71929.00;;;-144.13;74.83
76374;BME280;65197;50.164;8.012;2024-03-02T04:44:49;71938.75;;;-144.13;75.48
76374;BME280;65197;50.164;8.012;2024-03-02T04:47:15;71923.16;;;-144.13;75.10
76374;BME280;65197;50.164;8.012;2024-03-02T04:49:40;71927.06;;;-144.13;75.39
76374;BME280;65197;50.164;8.012;2024-03-02T04:52:06;71946.56;;;-144.13;75.62
76374;BME280;65197;50.164;8.012;2024-03-02T04:54:32;71919.25;;;-144.13;74.89
76374;BME280;65197;50.164;8.012;2024-03-02T04:57:00;71934.84;;;-144.13;74.81
76374;BME280;65197;50.164;8.012;2024-03-02T04:59:25;71921.19;;;-144.13;74.44
76374;BME280;65197;50.164;8.012;2024-03-02T05:01:51;71907.56;;;-144.13;73.89
76374;BME280;65197;50.164;8.012;2024-03-02T05:04:16;71880.25;;;-144.13;72.37
76374;BME280;65197;50.164;8.012;2024-03-02T05:06:41;71911.44;;;-144.13;73.62
76374;BME280;65197;50.164;8.012;2024-03-02T05:09:07;71876.34;;;-144.13;72.13
76374;BME280;65197;50.164;8.012;2024-03-02T05:11:33;71899.75;;;-144.13;72.61
76374;BME280;65197;50.164;8.012;2024-03-02T05:14:05;71899.75;;;-144.13;72.55
76374;BME280;65197;50.164;8.012;2024-03-02T05:16:37;71932.91;;;-144.13;73.94
76374;BME280;65197;50.164;8.012;2024-03-02T05:19:06;71915.34;;;-144.13;73.71
76374;BME280;65197;50.164;8.012;2024-03-02T05:21:32;71903.66;;;-144.13;73.91
76374;BME280;65197;50.164;8.012;2024-03-02T05:23:58;71915.34;;;-144.13;74.11
76374;BME280;65197;50.164;8.012;2024-03-02T05:26:23;71895.84;;;-144.13;73.38
76374;BME280;65197;50.164;8.012;2024-03-02T05:28:49;71886.09;;;-144.13;73.23
76374;BME280;65197;50.164;8.012;2024-03-02T05:31:17;71942.66;;;-144.13;75.50
76374;BME280;65197;50.164;8.012;2024-03-02T05:33:43;71940.69;;;-144.13;75.46
76374;BME280;65197;50.164;8.012;2024-03-02T05:36:08;71919.25;;;-144.13;74.40
76374;BME280;65197;50.164;8.012;2024-03-02T05:38:34;71895.84;;;-144.13;73.61
76374;BME280;65197;50.164;8.012;2024-03-02T05:41:00;71890.00;;;-144.13;73.17
76374;BME280;65197;50.164;8.012;2024-03-02T05:43:25;71874.41;;;-144.13;72.96
76374;BME280;65197;50.164;8.012;2024-03-02T05:45:51;71891.97;;;-144.13;72.99
76374;BME280;65197;50.164;8.012;2024-03-02T05:48:16;71849.06;;;-144.13;71.62
76374;BME280;65197;50.164;8.012;2024-03-02T05:50:41;71868.56;;;-144.13;72.50
76374;BME280;65197;50.164;8.012;2024-03-02T05:53:07;71882.22;;;-144.13;71.96
76374;BME280;65197;50.164;8.012;2024-03-02T05:55:32;71891.97;;;-144.13;73.41
76374;BME280;65197;50.164;8.012;2024-03-02T05:57:58;71852.97;;;-144.13;71.60
76374;BME280;65197;50.164;8.012;2024-03-02T06:00:23;71849.06;;;-144.13;71.27
76374;BME280;65197;50.164;8.012;2024-03-02T06:02:49;71854.91;;;-144.13;71.09
76374;BME280;65197;50.164;8.012;2024-03-02T06:05:14;71884.16;;;-144.13;72.15
76374;BME280;65197;50.164;8.012;2024-03-02T06:07:41;71872.44;;;-144.13;71.66
76374;BME280;65197;50.164;8.012;2024-03-02T06:10:06;71856.84;;;-144.13;71.72
76374;BME280;65197;50.164;8.012;2024-03-02T06:12:34;71874.41;;;-144.13;71.77
76374;BME280;65197;50.164;8.012;2024-03-02T06:14:59;71919.25;;;-144.13;72.94
76374;BME280;65197;50.164;8.012;2024-03-02T06:17:25;71878.31;;;-144.13;72.19
76374;BME280;65197;50.164;8.012;2024-03-02T06:19:50;71849.06;;;-144.13;70.99
76374;BME280;65197;50.164;8.012;2024-03-02T06:22:15;71851.00;;;-144.13;70.87
76374;BME280;65197;50.164;8.012;2024-03-02T06:24:41;71864.66;;;-144.13;71.80
76374;BME280;65197;50.164;8.012;2024-03-02T06:27:06;71831.50;;;-144.13;70.61
76374;BME280;65197;50.164;8.012;2024-03-02T06:29:33;71841.25;;;-144.13;70.26
76374;BME280;65197;50.164;8.012;2024-03-02T06:31:59;71868.56;;;-144.13;71.04
76374;BME280;65197;50.164;8.012;2024-03-02T06:34:24;71874.41;;;-144.13;71.41
76374;BME280;65197;50.164;8.012;2024-03-02T06:36:49;71847.09;;;-144.13;71.17
76374;BME280;65197;50.164;8.012;2024-03-02T06:39:15;71854.91;;;-144.13;70.96
76374;BME280;65197;50.164;8.012;2024-03-02T06:41:40;71829.56;;;-144.13;70.25
76374;BME280;65197;50.164;8.012;2024-03-02T06:44:07;71841.25;;;-144.13;70.08
76374;BME280;65197;50.164;8.012;2024-03-02T06:46:32;71841.25;;;-144.13;70.03
76374;BME280;65197;50.164;8.012;2024-03-02T06:48:58;71829.56;;;-144.13;69.57
76374;BME280;65197;50.164;8.012;2024-03-02T06:51:23;71833.47;;;-144.13;69.90
76374;BME280;65197;50.164;8.012;2024-03-02T06:53:49;71849.06;;;-144.13;71.13
76374;BME280;65197;50.164;8.012;2024-03-02T06:56:14;71843.22;;;-144.13;70.73
76374;BME280;65197;50.164;8.012;2024-03-02T06:58:39;71870.50;;;-144.13;72.12
76374;BME280;65197;50.164;8.012;2024-03-02T07:01:05;71835.41;;;-144.13;70.08
76374;BME280;65197;50.164;8.012;2024-03-02T07:03:30;71796.41;;;-144.13;69.12
76374;BME280;65197;50.164;8.012;2024-03-02T07:05:55;71854.91;;;-144.13;70.42
76374;BME280;65197;50.164;8.012;2024-03-02T07:08:21;71837.34;;;-144.13;70.25
76374;BME280;65197;50.164;8.012;2024-03-02T07:10:46;71810.06;;;-144.13;69.67
76374;BME280;65197;50.164;8.012;2024-03-02T07:13:12;71843.22;;;-144.13;70.11
76374;BME280;65197;50.164;8.012;2024-03-02T07:15:38;71821.75;;;-144.13;69.97
76374;BME280;65197;50.164;8.012;2024-03-02T07:18:22;71831.50;;;-144.13;69.95
76374;BME280;65197;50.164;8.012;2024-03-02T07:20:47;71790.56;;;-144.13;68.67
76374;BME280;65197;50.164;8.012;2024-03-02T07:23:14;71815.91;;;-144.13;68.71
76374;BME280;65197;50.164;8.012;2024-03-02T07:25:39;71825.66;;;-144.13;69.32
76374;BME280;65197;50.164;8.012;2024-03-02T07:28:05;71804.22;;;-144.13;68.49
76374;BME280;65197;50.164;8.012;2024-03-02T07:30:32;71810.06;;;-144.13;68.47
76374;BME280;65197;50.164;8.012;2024-03-02T07:32:57;71856.84;;;-144.13;70.89
76374;BME280;65197;50.164;8.012;2024-03-02T07:35:23;71813.97;;;-144.13;69.43
76374;BME280;65197;50.164;8.012;2024-03-02T07:37:53;71819.81;;;-144.13;69.95
76374;BME280;65197;50.164;8.012;2024-03-02T07:40:19;71854.91;;;-144.13;70.97
76374;BME280;65197;50.164;8.012;2024-03-02T07:42:45;71790.56;;;-144.13;69.68
76374;BME280;65197;50.164;8.012;2024-03-02T07:45:11;71821.75;;;-144.13;70.57
76374;BME280;65197;50.164;8.012;2024-03-02T07:47:36;71817.84;;;-144.13;69.24
76374;BME280;65197;50.164;8.012;2024-03-02T07:50:02;71786.66;;;-144.13;69.45
76374;BME280;65197;50.164;8.012;2024-03-02T07:52:28;71782.75;;;-144.13;68.70
76374;BME280;65197;50.164;8.012;2024-03-02T07:54:53;71786.66;;;-144.13;68.51
76374;BME280;65197;50.164;8.012;2024-03-02T07:57:19;71759.34;;;-144.13;67.40
76374;BME280;65197;50.164;8.012;2024-03-02T07:59:45;71776.91;;;-144.13;69.67
76374;BME280;65197;50.164;8.012;2024-03-02T08:02:10;71726.22;;;-144.13;66.72
76374;BME280;65197;50.164;8.012;2024-03-02T08:04:37;71745.72;;;-144.13;65.69
76374;BME280;65197;50.164;8.012;2024-03-02T08:07:03;71757.41;;;-144.13;65.96
76374;BME280;65197;50.164;8.012;2024-03-02T08:09:29;71728.16;;;-144.13;64.96
76374;BME280;65197;50.164;8.012;2024-03-02T08:11:55;71704.75;;;-144.13;64.31
76374;BME280;65197;50.164;8.012;2024-03-02T08:14:22;71665.78;;;-144.13;63.58
76374;BME280;65197;50.164;8.012;2024-03-02T08:16:47;71759.34;;;-144.13;66.34
76374;BME280;65197;50.164;8.012;2024-03-02T08:19:12;71745.72;;;-144.13;66.02
76374;BME280;65197;50.164;8.012;2024-03-02T08:21:38;71726.22;;;-144.13;65.63
76374;BME280;65197;50.164;8.012;2024-03-02T08:24:04;71685.28;;;-144.13;63.92
76374;BME280;65197;50.164;8.012;2024-03-02T08:26:29;71681.38;;;-144.13;63.46
76374;BME280;65197;50.164;8.012;2024-03-02T08:28:57;71685.28;;;-144.13;64.96
76374;BME280;65197;50.164;8.012;2024-03-02T08:31:23;71704.75;;;-144.13;64.53
76374;BME280;65197;50.164;8.012;2024-03-02T08:33:48;71683.31;;;-144.13;64.15
76374;BME280;65197;50.164;8.012;2024-03-02T08:36:13;71657.97;;;-144.13;63.22
76374;BME280;65197;50.164;8.012;2024-03-02T08:38:40;71587.78;;;-144.13;60.72
76374;BME280;65197;50.164;8.012;2024-03-02T08:41:06;71455.19;;;-144.13;58.12
76374;BME280;65197;50.164;8.012;2024-03-02T08:43:32;71427.91;;;-144.13;56.84
76374;BME280;65197;50.164;8.012;2024-03-02T08:45:58;71412.31;;;-144.13;54.20
76374;BME280;65197;50.164;8.012;2024-03-02T08:48:23;71425.94;;;-144.13;54.36
76374;BME280;65197;50.164;8.012;2024-03-02T08:50:49;71509.78;;;-144.13;56.63
76374;BME280;65197;50.164;8.012;2024-03-02T08:53:14;71587.78;;;-144.13;58.36
76374;BME280;65197;50.164;8.012;2024-03-02T08:55:43;71579.97;;;-144.13;57.70
76374;BME280;65197;50.164;8.012;2024-03-02T08:58:08;71615.06;;;-144.13;59.08
76374;BME280;65197;50.164;8.012;2024-03-02T09:00:34;71650.16;;;-144.13;60.31
76374;BME280;65197;50.164;8.012;2024-03-02T09:02:59;71603.38;;;-144.13;58.97
76374;BME280;65197;50.164;8.012;2024-03-02T09:05:25;71548.78;;;-144.13;57.37
76374;BME280;65197;50.164;8.012;2024-03-02T09:07:50;71517.59;;;-144.13;55.33
76374;BME280;65197;50.164;8.012;2024-03-02T09:10:15;71531.22;;;-144.13;55.81
76374;BME280;65197;50.164;8.012;2024-03-02T09:12:41;71416.19;;;-144.13;53.96
76374;BME280;65197;50.164;8.012;2024-03-02T09:15:08;71307.03;;;-144.13;50.28
76374;BME280;65197;50.164;8.012;2024-03-02T09:17:33;71260.22;;;-144.13;48.96
76374;BME280;65197;50.164;8.012;2024-03-02T09:19:59;71264.13;;;-144.13;48.25
76374;BME280;65197;50.164;8.012;2024-03-02T09:22:24;71190.03;;;-144.13;49.34
76374;BME280;65197;50.164;8.012;2024-03-02T09:24:49;71262.19;;;-144.13;47.33
76374;BME280;65197;50.164;8.012;2024-03-02T09:27:15;71295.31;;;-144.13;48.64
76374;BME280;65197;50.164;8.012;2024-03-02T09:29:40;71398.66;;;-144.13;51.16
76374;BME280;65197;50.164;8.012;2024-03-02T09:32:07;71361.59;;;-144.13;49.39
76374;BME280;65197;50.164;8.012;2024-03-02T09:34:32;71357.72;;;-144.13;49.17
76374;BME280;65197;50.164;8.012;2024-03-02T09:36:58;71369.41;;;-144.13;50.82
76374;BME280;65197;50.164;8.012;2024-03-02T09:39:23;71435.69;;;-144.13;52.55
76374;BME280;65197;50.164;8.012;2024-03-02T09:41:50;71367.47;;;-144.13;50.73
76374;BME280;65197;50.164;8.012;2024-03-02T09:44:16;71412.31;;;-144.13;51.50
76374;BME280;65197;50.164;8.012;2024-03-02T09:46:42;71363.56;;;-144.13;51.67
76374;BME280;65197;50.164;8.012;2024-03-02T09:49:12;71379.16;;;-144.13;50.97
76374;BME280;65197;50.164;8.012;2024-03-02T09:51:37;71295.31;;;-144.13;50.53
76374;BME280;65197;50.164;8.012;2024-03-02T09:54:03;71260.22;;;-144.13;49.56
76374;BME280;65197;50.164;8.012;2024-03-02T09:56:29;71135.44;;;-144.13;47.35
76374;BME280;65197;50.164;8.012;2024-03-02T09:58:55;71182.25;;;-144.13;47.02
76374;BME280;65197;50.164;8.012;2024-03-02T10:01:20;71166.66;;;-144.13;47.52
76374;BME280;65197;50.164;8.012;2024-03-02T10:03:47;71088.66;;;-144.13;46.19
76374;BME280;65197;50.164;8.012;2024-03-02T10:06:25;70924.91;;;-144.13;43.50
76374;BME280;65197;50.164;8.012;2024-03-02T10:08:51;70995.09;;;-144.13;43.50
76374;BME280;65197;50.164;8.012;2024-03-02T10:16:34;71045.78;;;-144.13;44.71
76374;BME280;65197;50.164;8.012;2024-03-02T10:19:15;71041.88;;;-144.13;43.23
76374;BME280;65197;50.164;8.012;2024-03-02T10:21:42;71139.34;;;-144.13;44.08
76374;BME280;65197;50.164;8.012;2024-03-02T10:24:07;71112.06;;;-144.13;45.56
76374;BME280;65197;50.164;8.012;2024-03-02T10:26:33;71026.28;;;-144.13;43.69
76374;BME280;65197;50.164;8.012;2024-03-02T10:28:58;71100.38;;;-144.13;43.92
76374;BME280;65197;50.164;8.012;2024-03-02T10:31:25;71162.75;;;-144.13;45.32
76374;BME280;65197;50.164;8.012;2024-03-02T10:33:54;71071.13;;;-144.13;44.28
76374;BME280;65197;50.164;8.012;2024-03-02T10:36:20;71153.00;;;-144.13;44.29
76374;BME280;65197;50.164;8.012;2024-03-02T10:38:46;71217.34;;;-144.13;45.33
76374;BME280;65197;50.164;8.012;2024-03-02T10:41:17;71273.88;;;-144.13;45.97
76374;BME280;65197;50.164;8.012;2024-03-02T10:43:43;71275.81;;;-144.13;45.90
76374;BME280;65197;50.164;8.012;2024-03-02T10:46:10;71404.50;;;-144.13;47.16
76374;BME280;65197;50.164;8.012;2024-03-02T10:48:39;71371.34;;;-144.13;46.87
76374;BME280;65197;50.164;8.012;2024-03-02T10:51:06;71408.41;;;-144.13;47.77
76374;BME280;65197;50.164;8.012;2024-03-02T10:53:32;71404.50;;;-144.13;49.06
76374;BME280;65197;50.164;8.012;2024-03-02T10:55:58;71414.25;;;-144.13;48.41
76374;BME280;65197;50.164;8.012;2024-03-02T10:58:32;71381.09;;;-144.13;49.16
76374;BME280;65197;50.164;8.012;2024-03-02T11:01:02;71388.91;;;-144.13;49.14
76374;BME280;65197;50.164;8.012;2024-03-02T11:03:35;71400.59;;;-144.13;49.25
76374;BME280;65197;50.164;8.012;2024-03-02T11:06:03;71457.16;;;-144.13;49.15
76374;BME280;65197;50.164;8.012;2024-03-02T11:08:31;71443.50;;;-144.13;50.00
76374;BME280;65197;50.164;8.012;2024-03-02T11:11:07;71383.06;;;-144.13;49.22
76374;BME280;65197;50.164;8.012;2024-03-02T11:13:38;71427.91;;;-144.13;49.16
76374;BME280;65197;50.164;8.012;2024-03-02T11:16:13;71388.91;;;-144.13;49.15
76374;BME280;65197;50.164;8.012;2024-03-02T11:18:42;71396.69;;;-144.13;49.02
76374;BME280;65197;50.164;8.012;2024-03-02T11:21:08;71390.84;;;-144.13;48.62
76374;BME280;65197;50.164;8.012;2024-03-02T11:23:34;71334.31;;;-144.13;48.65
76374;BME280;65197;50.164;8.012;2024-03-02T11:26:19;71357.72;;;-144.13;48.05
76374;BME280;65197;50.164;8.012;2024-03-02T11:28:45;71334.31;;;-144.13;48.25
76374;BME280;65197;50.164;8.012;2024-03-02T11:31:11;71308.97;;;-144.13;47.82
76374;BME280;65197;50.164;8.012;2024-03-02T11:33:36;71236.84;;;-144.13;46.57
76374;BME280;65197;50.164;8.012;2024-03-02T11:36:01;71201.75;;;-144.13;45.76
76374;BME280;65197;50.164;8.012;2024-03-02T11:38:28;71190.03;;;-144.13;46.53
76374;BME280;65197;50.164;8.012;2024-03-02T11:40:56;71088.66;;;-144.13;44.63
76374;BME280;65197;50.164;8.012;2024-03-02T11:43:22;70940.50;;;-144.13;41.80
76374;BME280;65197;50.164;8.012;2024-03-02T11:45:56;70858.63;;;-144.13;41.94
76374;BME280;65197;50.164;8.012;2024-03-02T11:48:22;70811.84;;;-144.13;40.53
76374;BME280;65197;50.164;8.012;2024-03-02T11:50:50;70843.03;;;-144.13;39.66
76374;BME280;65197;50.164;8.012;2024-03-02T11:53:16;70765.06;;;-144.13;38.27
76374;BME280;65197;50.164;8.012;2024-03-02T11:55:42;70874.22;;;-144.13;38.75
76374;BME280;65197;50.164;8.012;2024-03-02T11:58:14;70831.34;;;-144.13;39.07
76374;BME280;65197;50.164;8.012;2024-03-02T12:00:43;70841.09;;;-144.13;40.12
76374;BME280;65197;50.164;8.012;2024-03-02T12:03:12;70741.66;;;-144.13;37.93
76374;BME280;65197;50.164;8.012;2024-03-02T12:05:37;70659.78;;;-144.13;38.12
76374;BME280;65197;50.164;8.012;2024-03-02T12:08:04;70776.75;;;-144.13;38.52
76374;BME280;65197;50.164;8.012;2024-03-02T12:10:30;70753.34;;;-144.13;38.05
76374;BME280;65197;50.164;8.012;2024-03-02T12:12:57;70737.75;;;-144.13;38.17
76374;BME280;65197;50.164;8.012;2024-03-02T12:15:32;70726.06;;;-144.13;37.58
76374;BME280;65197;50.164;8.012;2024-03-02T12:17:59;70669.53;;;-144.13;36.16
76374;BME280;65197;50.164;8.012;2024-03-02T12:20:27;70663.69;;;-144.13;35.94
76374;BME280;65197;50.164;8.012;2024-03-02T12:22:54;70745.56;;;-144.13;38.08
76374;BME280;65197;50.164;8.012;2024-03-02T12:25:20;70765.06;;;-144.13;35.94
76374;BME280;65197;50.164;8.012;2024-03-02T12:27:50;70919.06;;;-144.13;37.58
76374;BME280;65197;50.164;8.012;2024-03-02T12:30:17;70837.19;;;-144.13;37.39
76374;BME280;65197;50.164;8.012;2024-03-02T12:32:44;70856.69;;;-144.13;37.90
76374;BME280;65197;50.164;8.012;2024-03-02T12:35:10;70883.97;;;-144.13;37.53
76374;BME280;65197;50.164;8.012;2024-03-02T12:37:47;70837.19;;;-144.13;37.32
76374;BME280;65197;50.164;8.012;2024-03-02T12:40:13;70866.44;;;-144.13;38.20
76374;BME280;65197;50.164;8.012;2024-03-02T12:42:40;70833.28;;;-144.13;38.22
76374;BME280;65197;50.164;8.012;2024-03-02T12:45:07;70866.44;;;-144.13;36.68
76374;BME280;65197;50.164;8.012;2024-03-02T12:47:33;70850.81;;;-144.13;37.32
76374;BME280;65197;50.164;8.012;2024-03-02T12:49:59;70880.06;;;-144.13;38.49